Time;durP1;ratioP1;P1;durP2;ratioP2;P2;SDS_P1;SDS_P2;PMS_P1;PMS_P2;Temp;Humidity;BMP_temperature;BMP_pressure;BME280_temperature;BME280_humidity;BME280_pressure;Samples;Min_cycle;Max_cycle;Signal;HPM_P1;HPM_P2
2023/07/16 00:00:19;;;;;;;10.90;2.78;;;;;;;;;;4997708;28;92466;-76
2023/07/16 00:02:45;;;;;;;10.80;2.65;;;;;;;;;;5011143;28;93684;-74
2023/07/16 00:05:12;;;;;;;10.05;2.00;;;;;;;;;;4994746;28;96669;-78
2023/07/16 00:07:39;;;;;;;8.50;1.98;;;;;;;;;;5000114;28;92478;-78
2023/07/16 00:10:06;;;;;;;6.53;2.17;;;;;;;;;;4997972;28;93742;-76
2023/07/16 00:12:32;;;;;;;11.57;2.22;;;;;;;;;;4999662;28;94099;-77
2023/07/16 00:14:58;;;;;;;9.18;2.45;;;;;;;;;;5010118;28;92451;-77
2023/07/16 00:17:25;;;;;;;8.38;2.45;;;;;;;;;;5014900;28;93467;-77
2023/07/16 00:19:51;;;;;;;11.38;2.53;;;;;;;;;;4996247;28;92473;-77
2023/07/16 00:22:17;;;;;;;8.85;2.50;;;;;;;;;;4996775;28;93198;-77
2023/07/16 00:24:44;;;;;;;9.63;2.92;;;;;;;;;;4995855;28;93405;-78
2023/07/16 00:27:10;;;;;;;6.35;2.33;;;;;;;;;;5007527;28;92425;-80
2023/07/16 00:29:37;;;;;;;26.25;3.33;;;;;;;;;;5004527;28;95791;-76
2023/07/16 00:32:04;;;;;;;7.78;2.50;;;;;;;;;;5036340;27;92463;-75
2023/07/16 00:34:30;;;;;;;11.85;2.80;;;;;;;;;;5035991;27;93143;-75
2023/07/16 00:37:01;;;;;;;8.63;2.47;;;;;;;;;;5035693;27;93513;-75
2023/07/16 00:39:28;;;;;;;15.73;2.92;;;;;;;;;;5035995;27;92512;-74
2023/07/16 00:41:55;;;;;;;11.07;2.67;;;;;;;;;;5035348;27;93573;-75
2023/07/16 00:44:21;;;;;;;15.30;2.83;;;;;;;;;;5007930;28;93364;-75
2023/07/16 00:46:48;;;;;;;12.60;2.55;;;;;;;;;;5000095;28;91796;-77
2023/07/16 00:49:15;;;;;;;24.15;2.67;;;;;;;;;;5011402;28;92715;-77
2023/07/16 00:51:42;;;;;;;8.43;2.13;;;;;;;;;;5006259;28;92535;-77
2023/07/16 00:54:08;;;;;;;7.70;2.40;;;;;;;;;;4993358;28;95126;-76
2023/07/16 00:56:36;;;;;;;11.82;2.70;;;;;;;;;;4995655;28;93420;-76
2023/07/16 00:59:02;;;;;;;9.48;3.00;;;;;;;;;;5007368;28;94028;-75
2023/07/16 01:01:29;;;;;;;11.73;2.65;;;;;;;;;;5010891;28;93280;-76
2023/07/16 01:03:55;;;;;;;12.93;3.25;;;;;;;;;;4995640;28;93310;-79
2023/07/16 01:06:25;;;;;;;9.70;2.92;;;;;;;;;;5000339;28;92448;-80
2023/07/16 01:09:01;;;;;;;13.57;2.92;;;;;;;;;;4996497;28;94232;-80
2023/07/16 01:11:28;;;;;;;10.27;2.58;;;;;;;;;;5014950;28;91729;-79
2023/07/16 01:13:55;;;;;;;5.78;2.65;;;;;;;;;;4997305;28;92757;-78
2023/07/16 01:16:22;;;;;;;14.15;3.25;;;;;;;;;;5001276;28;93411;-79
2023/07/16 01:18:49;;;;;;;12.00;2.92;;;;;;;;;;5001616;28;94792;-78
2023/07/16 01:21:18;;;;;;;8.88;2.67;;;;;;;;;;4995072;28;94449;-78
2023/07/16 01:24:03;;;;;;;15.57;2.88;;;;;;;;;;4998896;28;92607;-78
2023/07/16 01:26:44;;;;;;;11.05;3.22;;;;;;;;;;4995170;28;92464;-76
2023/07/16 01:29:13;;;;;;;14.68;2.97;;;;;;;;;;4994626;28;93377;-77
2023/07/16 01:31:40;;;;;;;11.98;3.22;;;;;;;;;;4994117;28;93406;-76
2023/07/16 01:34:08;;;;;;;13.15;3.30;;;;;;;;;;5001857;28;92975;-77
2023/07/16 01:36:36;;;;;;;14.95;3.20;;;;;;;;;;5014567;28;92713;-80
2023/07/16 01:39:02;;;;;;;7.88;3.05;;;;;;;;;;4999202;28;92467;-77
2023/07/16 01:41:29;;;;;;;12.85;3.25;;;;;;;;;;4994357;28;93057;-79
2023/07/16 01:43:55;;;;;;;7.53;2.53;;;;;;;;;;4994477;28;95853;-79
2023/07/16 01:46:22;;;;;;;10.43;2.72;;;;;;;;;;5002069;28;92461;-78
2023/07/16 01:48:48;;;;;;;14.50;2.78;;;;;;;;;;5004640;27;92410;-79
2023/07/16 01:51:15;;;;;;;12.70;3.20;;;;;;;;;;4994124;28;94504;-77
2023/07/16 01:53:41;;;;;;;14.88;3.33;;;;;;;;;;4995027;28;92434;-78
2023/07/16 01:56:08;;;;;;;13.63;3.28;;;;;;;;;;4997140;28;93778;-75
2023/07/16 01:58:34;;;;;;;14.60;3.28;;;;;;;;;;4994266;28;92601;-81
2023/07/16 02:01:00;;;;;;;12.10;3.13;;;;;;;;;;4995631;28;93268;-79
2023/07/16 02:03:27;;;;;;;11.88;3.13;;;;;;;;;;4996013;28;93828;-79
2023/07/16 02:05:54;;;;;;;12.55;3.08;;;;;;;;;;5003185;28;92465;-79
2023/07/16 02:08:20;;;;;;;15.15;3.85;;;;;;;;;;5010397;28;94930;-81
2023/07/16 02:10:47;;;;;;;12.00;3.30;;;;;;;;;;4995387;28;93443;-79
2023/07/16 02:13:14;;;;;;;17.92;3.47;;;;;;;;;;4998098;28;92513;-80
2023/07/16 02:15:40;;;;;;;12.63;3.47;;;;;;;;;;5017055;28;92911;-80
2023/07/16 02:18:07;;;;;;;9.85;3.63;;;;;;;;;;5014925;28;92406;-79
2023/07/16 02:20:33;;;;;;;9.50;3.33;;;;;;;;;;5013271;28;94322;-80
2023/07/16 02:23:00;;;;;;;14.00;3.40;;;;;;;;;;4996752;28;93848;-80
2023/07/16 02:25:26;;;;;;;14.00;4.50;;;;;;;;;;4994678;28;92224;-80
2023/07/16 02:27:53;;;;;;;14.52;4.05;;;;;;;;;;4994793;28;92815;-80
2023/07/16 02:30:19;;;;;;;18.00;4.40;;;;;;;;;;5009072;28;94817;-80
2023/07/16 02:32:46;;;;;;;12.45;3.75;;;;;;;;;;5032850;27;95313;-80
2023/07/16 02:35:13;;;;;;;17.13;4.28;;;;;;;;;;5034399;27;95226;-77
2023/07/16 02:37:39;;;;;;;12.18;4.00;;;;;;;;;;5036991;27;93261;-78
2023/07/16 02:40:06;;;;;;;13.10;3.30;;;;;;;;;;5033739;27;93177;-77
2023/07/16 02:42:33;;;;;;;9.45;3.30;;;;;;;;;;5028472;27;93584;-77
2023/07/16 02:44:59;;;;;;;20.08;4.43;;;;;;;;;;5013698;28;92499;-77
2023/07/16 02:47:25;;;;;;;13.23;3.25;;;;;;;;;;5004517;28;93210;-78
2023/07/16 02:49:52;;;;;;;13.55;3.35;;;;;;;;;;4997764;28;93222;-77
2023/07/16 02:52:18;;;;;;;11.85;3.92;;;;;;;;;;5002813;28;92442;-77
2023/07/16 02:54:45;;;;;;;22.58;4.15;;;;;;;;;;4993869;28;92684;-78
2023/07/16 02:57:11;;;;;;;15.82;3.90;;;;;;;;;;4991568;28;96399;-78
2023/07/16 02:59:38;;;;;;;12.25;3.50;;;;;;;;;;4996627;28;92541;-78
2023/07/16 03:02:04;;;;;;;15.50;3.97;;;;;;;;;;4993445;28;93529;-78
2023/07/16 03:04:30;;;;;;;14.98;3.70;;;;;;;;;;5002520;28;92416;-78
2023/07/16 03:06:57;;;;;;;14.18;3.70;;;;;;;;;;5008056;28;93194;-76
2023/07/16 03:09:23;;;;;;;11.77;3.03;;;;;;;;;;4995827;28;93493;-76
2023/07/16 03:11:49;;;;;;;14.40;4.20;;;;;;;;;;4993310;28;92429;-75
2023/07/16 03:14:16;;;;;;;10.25;3.30;;;;;;;;;;4993674;28;93227;-76
2023/07/16 03:16:42;;;;;;;9.68;3.45;;;;;;;;;;4998413;28;93956;-75
2023/07/16 03:19:09;;;;;;;11.52;3.80;;;;;;;;;;4996853;28;93071;-75
2023/07/16 03:21:35;;;;;;;12.20;3.90;;;;;;;;;;4995014;28;94830;-75
2023/07/16 03:24:01;;;;;;;13.52;3.63;;;;;;;;;;4993066;28;92406;-75
2023/07/16 03:26:28;;;;;;;12.90;3.67;;;;;;;;;;4995857;28;94075;-76
2023/07/16 03:28:55;;;;;;;11.98;4.43;;;;;;;;;;5004932;28;96240;-75
2023/07/16 03:31:21;;;;;;;8.45;2.83;;;;;;;;;;4997125;28;92464;-76
2023/07/16 03:33:48;;;;;;;17.55;3.45;;;;;;;;;;4996787;28;96240;-78
2023/07/16 03:36:14;;;;;;;10.68;3.75;;;;;;;;;;4997277;28;93433;-77
2023/07/16 03:38:41;;;;;;;11.38;3.70;;;;;;;;;;4998823;28;92542;-77
2023/07/16 03:41:08;;;;;;;11.60;3.45;;;;;;;;;;5015778;28;93062;-79
2023/07/16 03:43:34;;;;;;;14.00;3.20;;;;;;;;;;5013972;28;93630;-79
2023/07/16 03:46:00;;;;;;;17.55;4.45;;;;;;;;;;5015085;28;95057;-79
2023/07/16 03:48:27;;;;;;;16.02;2.88;;;;;;;;;;5002205;28;93418;-79
2023/07/16 03:50:53;;;;;;;9.93;3.05;;;;;;;;;;4995606;28;93021;-77
2023/07/16 03:53:20;;;;;;;11.00;3.50;;;;;;;;;;5009467;28;93236;-75
2023/07/16 03:55:46;;;;;;;13.55;3.28;;;;;;;;;;4996546;28;93768;-75
2023/07/16 03:58:12;;;;;;;10.18;3.10;;;;;;;;;;4995765;28;92718;-75
2023/07/16 04:00:40;;;;;;;15.95;4.05;;;;;;;;;;4996092;28;93445;-75
2023/07/16 04:03:07;;;;;;;11.38;3.40;;;;;;;;;;5003125;28;93135;-74
2023/07/16 04:05:33;;;;;;;10.82;3.25;;;;;;;;;;5001952;28;93799;-75
2023/07/16 04:07:59;;;;;;;14.48;3.45;;;;;;;;;;5010859;28;93435;-79
2023/07/16 04:10:26;;;;;;;13.60;3.05;;;;;;;;;;4999236;28;94940;-79
2023/07/16 04:12:52;;;;;;;9.27;3.95;;;;;;;;;;4995750;28;95772;-79
2023/07/16 04:15:19;;;;;;;13.55;4.35;;;;;;;;;;5008677;28;93697;-80
2023/07/16 04:17:45;;;;;;;11.60;4.10;;;;;;;;;;5016582;28;92716;-79
2023/07/16 04:20:11;;;;;;;12.07;3.47;;;;;;;;;;5015732;28;93141;-79
2023/07/16 04:22:38;;;;;;;12.30;3.80;;;;;;;;;;5010781;28;93770;-80
2023/07/16 04:25:05;;;;;;;12.93;4.53;;;;;;;;;;4997743;28;92479;-80
2023/07/16 04:27:31;;;;;;;13.05;4.00;;;;;;;;;;4999207;28;93009;-79
2023/07/16 04:29:58;;;;;;;13.38;3.50;;;;;;;;;;4995974;28;92406;-80
2023/07/16 04:32:24;;;;;;;11.68;3.80;;;;;;;;;;4995383;28;93543;-80
2023/07/16 04:34:50;;;;;;;16.17;4.20;;;;;;;;;;5013647;28;94882;-77
2023/07/16 04:37:17;;;;;;;14.02;4.35;;;;;;;;;;5015421;28;92472;-77
2023/07/16 04:39:43;;;;;;;10.07;3.92;;;;;;;;;;5015625;28;93332;-77
2023/07/16 04:42:10;;;;;;;11.18;3.88;;;;;;;;;;5015372;28;93511;-77
2023/07/16 04:44:36;;;;;;;10.00;3.70;;;;;;;;;;5011378;28;92385;-77
2023/07/16 04:47:02;;;;;;;8.70;4.07;;;;;;;;;;5018453;28;93632;-78
2023/07/16 04:49:29;;;;;;;17.75;4.07;;;;;;;;;;4995642;28;92523;-77
2023/07/16 04:51:55;;;;;;;12.45;4.45;;;;;;;;;;5000803;28;93150;-74
2023/07/16 04:54:22;;;;;;;7.90;3.67;;;;;;;;;;5005214;28;93541;-75
2023/07/16 04:56:48;;;;;;;11.68;3.95;;;;;;;;;;4995928;28;92628;-75
2023/07/16 04:59:15;;;;;;;13.98;4.35;;;;;;;;;;4993422;28;94865;-75
2023/07/16 05:01:41;;;;;;;17.70;4.78;;;;;;;;;;4994769;28;93532;-75
2023/07/16 05:04:07;;;;;;;6.95;3.42;;;;;;;;;;4994535;28;93739;-75
2023/07/16 05:06:34;;;;;;;11.90;3.80;;;;;;;;;;4995080;28;93071;-75
2023/07/16 05:09:00;;;;;;;13.13;3.95;;;;;;;;;;5000698;28;93719;-82
2023/07/16 05:11:27;;;;;;;14.50;5.00;;;;;;;;;;5002153;28;93220;-76
2023/07/16 05:13:53;;;;;;;9.60;3.83;;;;;;;;;;5012900;28;93596;-76
2023/07/16 05:16:20;;;;;;;14.20;3.97;;;;;;;;;;5008751;28;91992;-77
2023/07/16 05:18:47;;;;;;;13.75;4.00;;;;;;;;;;4997882;28;92432;-77
2023/07/16 05:21:13;;;;;;;11.60;3.90;;;;;;;;;;4994244;28;93642;-77
2023/07/16 05:23:40;;;;;;;9.00;4.00;;;;;;;;;;4996599;28;94850;-77
2023/07/16 05:26:06;;;;;;;11.88;4.40;;;;;;;;;;4997077;28;95926;-77
2023/07/16 05:28:32;;;;;;;14.80;5.05;;;;;;;;;;5003630;28;94586;-77
2023/07/16 05:31:02;;;;;;;12.35;4.28;;;;;;;;;;5009338;28;92569;-77
2023/07/16 05:33:29;;;;;;;8.02;4.22;;;;;;;;;;4994228;28;93539;-75
2023/07/16 05:35:55;;;;;;;9.50;4.30;;;;;;;;;;4994382;28;92469;-75
2023/07/16 05:38:22;;;;;;;15.52;4.30;;;;;;;;;;4994433;28;93146;-76
2023/07/16 05:40:48;;;;;;;22.80;5.40;;;;;;;;;;4998749;28;93156;-76
2023/07/16 05:43:15;;;;;;;9.50;3.90;;;;;;;;;;5007441;28;92583;-76
2023/07/16 05:45:41;;;;;;;19.17;5.15;;;;;;;;;;5012872;28;93126;-73
2023/07/16 05:48:08;;;;;;;9.77;4.35;;;;;;;;;;5000272;28;95640;-75
2023/07/16 05:50:34;;;;;;;15.45;5.18;;;;;;;;;;5000481;28;93671;-76
2023/07/16 05:53:01;;;;;;;31.08;4.95;;;;;;;;;;4999022;28;93206;-77
2023/07/16 05:55:27;;;;;;;14.23;4.68;;;;;;;;;;4992750;28;92459;-76
2023/07/16 05:57:53;;;;;;;16.15;4.93;;;;;;;;;;4994176;28;95929;-76
2023/07/16 06:00:20;;;;;;;15.07;4.75;;;;;;;;;;4993043;28;93334;-76
2023/07/16 06:02:46;;;;;;;15.13;4.75;;;;;;;;;;4994403;28;92441;-76
2023/07/16 06:05:12;;;;;;;10.45;4.35;;;;;;;;;;4994926;28;93111;-76
2023/07/16 06:07:39;;;;;;;10.55;4.40;;;;;;;;;;4997550;28;93407;-76
2023/07/16 06:10:06;;;;;;;15.75;4.95;;;;;;;;;;5011973;28;92406;-76
2023/07/16 06:12:32;;;;;;;11.77;5.00;;;;;;;;;;5001049;28;94867;-76
2023/07/16 06:14:58;;;;;;;12.55;4.20;;;;;;;;;;5017268;28;93408;-76
2023/07/16 06:17:25;;;;;;;13.88;4.82;;;;;;;;;;5012863;28;93231;-76
2023/07/16 06:19:51;;;;;;;31.25;4.82;;;;;;;;;;5013735;28;93760;-76
2023/07/16 06:22:18;;;;;;;12.70;5.50;;;;;;;;;;5014204;28;92384;-77
2023/07/16 06:24:44;;;;;;;12.32;4.20;;;;;;;;;;5014362;28;96197;-77
2023/07/16 06:27:10;;;;;;;11.25;4.07;;;;;;;;;;5012849;28;93454;-76
2023/07/16 06:29:37;;;;;;;14.98;4.65;;;;;;;;;;4999783;28;91739;-74
2023/07/16 06:32:03;;;;;;;17.17;5.38;;;;;;;;;;4993088;28;93586;-75
2023/07/16 06:34:30;;;;;;;16.20;5.32;;;;;;;;;;5016575;28;93369;-75
2023/07/16 06:36:56;;;;;;;9.63;4.68;;;;;;;;;;5032537;28;94786;-74
2023/07/16 06:39:22;;;;;;;20.00;5.28;;;;;;;;;;5033660;27;93427;-74
2023/07/16 06:41:49;;;;;;;16.05;5.15;;;;;;;;;;5026064;27;92661;-74
2023/07/16 06:44:15;;;;;;;10.93;4.15;;;;;;;;;;5003235;28;93192;-74
2023/07/16 06:46:41;;;;;;;14.95;4.63;;;;;;;;;;4999742;28;93215;-74
2023/07/16 06:49:08;;;;;;;12.70;5.50;;;;;;;;;;4997859;28;92472;-74
2023/07/16 06:51:34;;;;;;;12.73;4.82;;;;;;;;;;5004908;28;92497;-74
2023/07/16 06:54:00;;;;;;;11.52;5.07;;;;;;;;;;4993792;28;92770;-74
2023/07/16 06:56:27;;;;;;;14.18;4.57;;;;;;;;;;4998325;28;92927;-74
2023/07/16 06:58:53;;;;;;;15.23;5.32;;;;;;;;;;4993364;28;94047;-74
2023/07/16 07:01:20;;;;;;;20.02;5.18;;;;;;;;;;5002941;28;94886;-74
2023/07/16 07:03:47;;;;;;;17.83;5.18;;;;;;;;;;4990787;28;96097;-75
2023/07/16 07:06:13;;;;;;;17.77;4.97;;;;;;;;;;4992865;28;92489;-74
2023/07/16 07:08:40;;;;;;;16.25;5.25;;;;;;;;;;4995808;28;92855;-74
2023/07/16 07:11:06;;;;;;;10.00;4.80;;;;;;;;;;5002618;28;93527;-74
2023/07/16 07:13:33;;;;;;;12.15;5.13;;;;;;;;;;5020736;27;93862;-74
2023/07/16 07:15:59;;;;;;;10.43;5.10;;;;;;;;;;5002773;28;93879;-75
2023/07/16 07:18:26;;;;;;;12.05;4.82;;;;;;;;;;5019866;28;91861;-74
2023/07/16 07:20:52;;;;;;;11.07;4.90;;;;;;;;;;5017078;28;92741;-74
2023/07/16 07:23:19;;;;;;;10.40;4.88;;;;;;;;;;5013083;28;93239;-75
2023/07/16 07:25:49;;;;;;;19.77;5.22;;;;;;;;;;5000283;28;95787;-75
2023/07/16 07:28:16;;;;;;;10.20;4.38;;;;;;;;;;4997353;28;92623;-75
2023/07/16 07:30:42;;;;;;;20.60;5.47;;;;;;;;;;4995536;28;93689;-75
2023/07/16 07:33:10;;;;;;;15.77;5.05;;;;;;;;;;4996199;28;93168;-74
2023/07/16 07:35:36;;;;;;;16.77;4.82;;;;;;;;;;4996896;28;92582;-75
2023/07/16 07:38:03;;;;;;;12.77;5.07;;;;;;;;;;4996334;28;93104;-75
2023/07/16 07:40:29;;;;;;;12.32;4.30;;;;;;;;;;4999829;28;93854;-74
2023/07/16 07:42:55;;;;;;;17.73;5.65;;;;;;;;;;4999868;28;93084;-74
2023/07/16 07:45:23;;;;;;;14.20;4.93;;;;;;;;;;5003452;28;93424;-74
2023/07/16 07:47:49;;;;;;;14.57;5.15;;;;;;;;;;5016774;28;92415;-74
2023/07/16 07:50:16;;;;;;;13.52;5.30;;;;;;;;;;5012453;28;94772;-74
2023/07/16 07:52:42;;;;;;;15.00;5.13;;;;;;;;;;4996833;28;94473;-74
2023/07/16 07:55:08;;;;;;;12.40;5.32;;;;;;;;;;5003827;28;92539;-74
2023/07/16 07:57:35;;;;;;;14.48;5.35;;;;;;;;;;4996159;28;93222;-74
2023/07/16 08:00:01;;;;;;;13.88;5.82;;;;;;;;;;4998130;28;93406;-74
2023/07/16 08:02:28;;;;;;;16.98;5.35;;;;;;;;;;5008937;28;92507;-74
2023/07/16 08:04:55;;;;;;;14.23;5.07;;;;;;;;;;4996490;28;93394;-74
2023/07/16 08:07:22;;;;;;;18.55;6.00;;;;;;;;;;5004282;28;92324;-75
2023/07/16 08:09:49;;;;;;;11.65;4.90;;;;;;;;;;5002641;28;92985;-74
2023/07/16 08:12:15;;;;;;;15.05;4.68;;;;;;;;;;4994274;28;92770;-75
2023/07/16 08:14:42;;;;;;;13.88;4.93;;;;;;;;;;5003127;28;96797;-75
2023/07/16 08:17:08;;;;;;;10.48;4.70;;;;;;;;;;5015569;28;95439;-75
2023/07/16 08:19:35;;;;;;;15.65;5.82;;;;;;;;;;5015501;28;93437;-75
2023/07/16 08:22:01;;;;;;;20.60;5.95;;;;;;;;;;5015654;28;92441;-75
2023/07/16 08:24:28;;;;;;;18.05;5.93;;;;;;;;;;5018826;28;93309;-76
2023/07/16 08:26:54;;;;;;;15.07;5.32;;;;;;;;;;5015774;28;92477;-76
2023/07/16 08:29:20;;;;;;;14.93;5.50;;;;;;;;;;5015326;28;93167;-75
2023/07/16 08:31:47;;;;;;;13.93;5.20;;;;;;;;;;5016302;28;92575;-75
2023/07/16 08:34:13;;;;;;;14.57;5.72;;;;;;;;;;5015359;28;92521;-75
2023/07/16 08:36:40;;;;;;;24.73;6.15;;;;;;;;;;5016040;28;92523;-74
2023/07/16 08:39:07;;;;;;;17.23;5.75;;;;;;;;;;5012642;28;96786;-74
2023/07/16 08:41:34;;;;;;;18.67;5.78;;;;;;;;;;5015516;28;92553;-76
2023/07/16 08:44:00;;;;;;;17.13;5.82;;;;;;;;;;5018252;28;93691;-74
2023/07/16 08:46:27;;;;;;;20.55;5.25;;;;;;;;;;5015609;28;92405;-75
2023/07/16 08:48:53;;;;;;;12.20;5.10;;;;;;;;;;5015415;28;92892;-75
2023/07/16 08:51:20;;;;;;;14.05;4.72;;;;;;;;;;5015189;28;93481;-74
2023/07/16 08:53:47;;;;;;;18.73;5.03;;;;;;;;;;5014093;28;92451;-76
2023/07/16 08:56:13;;;;;;;14.63;5.05;;;;;;;;;;5015844;28;93231;-74
2023/07/16 08:58:42;;;;;;;16.08;5.05;;;;;;;;;;5015206;28;93848;-74
2023/07/16 09:01:10;;;;;;;12.48;4.85;;;;;;;;;;5013875;28;92514;-76
2023/07/16 09:03:36;;;;;;;19.17;5.28;;;;;;;;;;5013471;28;94843;-76
2023/07/16 09:06:03;;;;;;;15.77;5.47;;;;;;;;;;5016939;28;93624;-76
2023/07/16 09:08:30;;;;;;;13.02;5.38;;;;;;;;;;5015112;28;92481;-74
2023/07/16 09:10:56;;;;;;;15.20;5.05;;;;;;;;;;5014550;28;93880;-74
2023/07/16 09:13:26;;;;;;;11.02;5.88;;;;;;;;;;5015079;28;92492;-74
2023/07/16 09:15:57;;;;;;;15.50;5.35;;;;;;;;;;5014614;28;93307;-76
2023/07/16 09:18:25;;;;;;;19.00;5.05;;;;;;;;;;5015188;28;93822;-76
2023/07/16 09:20:55;;;;;;;14.52;5.65;;;;;;;;;;5014332;28;91768;-75
2023/07/16 09:23:26;;;;;;;10.30;5.43;;;;;;;;;;5014680;28;92664;-75
2023/07/16 09:25:53;;;;;;;20.58;6.20;;;;;;;;;;5014643;28;93292;-75
2023/07/16 09:28:20;;;;;;;14.25;5.50;;;;;;;;;;5016488;28;94852;-75
2023/07/16 09:30:47;;;;;;;13.95;5.53;;;;;;;;;;5013406;28;93935;-75
2023/07/16 09:33:14;;;;;;;14.82;5.10;;;;;;;;;;5014818;28;92448;-75
2023/07/16 09:35:41;;;;;;;16.25;5.70;;;;;;;;;;5013331;28;93328;-75
2023/07/16 09:38:09;;;;;;;16.58;5.38;;;;;;;;;;5014599;28;93627;-75
2023/07/16 09:40:37;;;;;;;13.70;5.43;;;;;;;;;;5014603;28;92492;-75
2023/07/16 09:43:05;;;;;;;13.85;4.50;;;;;;;;;;5014346;28;93444;-76
2023/07/16 09:45:32;;;;;;;10.05;4.55;;;;;;;;;;5015072;28;92521;-75
2023/07/16 09:47:58;;;;;;;14.30;5.00;;;;;;;;;;5014875;28;92905;-75
2023/07/16 09:50:27;;;;;;;11.02;5.00;;;;;;;;;;5017317;28;93211;-75
2023/07/16 09:52:53;;;;;;;9.88;4.22;;;;;;;;;;5012725;28;95530;-76
2023/07/16 09:55:21;;;;;;;11.20;5.68;;;;;;;;;;5014291;28;95774;-75
2023/07/16 09:57:48;;;;;;;12.70;4.75;;;;;;;;;;5014214;28;93301;-75
2023/07/16 10:00:15;;;;;;;11.88;4.15;;;;;;;;;;5009137;28;92961;-75
2023/07/16 10:02:42;;;;;;;8.93;4.53;;;;;;;;;;4992893;28;93207;-75
2023/07/16 10:05:15;;;;;;;16.42;5.15;;;;;;;;;;4993244;28;93408;-75
2023/07/16 10:07:42;;;;;;;15.65;5.18;;;;;;;;;;4994278;28;92453;-75
2023/07/16 10:10:09;;;;;;;12.02;4.82;;;;;;;;;;4994720;28;93601;-75
2023/07/16 10:12:36;;;;;;;11.02;4.78;;;;;;;;;;4997038;28;93473;-75
2023/07/16 10:15:04;;;;;;;12.35;4.68;;;;;;;;;;4994046;28;93602;-75
2023/07/16 10:17:31;;;;;;;22.63;4.45;;;;;;;;;;5005520;28;95841;-75
2023/07/16 10:20:10;;;;;;;13.35;4.90;;;;;;;;;;5014128;28;92885;-75
2023/07/16 10:22:40;;;;;;;12.35;4.65;;;;;;;;;;5013883;28;94231;-76
2023/07/16 10:25:18;;;;;;;11.55;4.82;;;;;;;;;;5013835;28;93479;-75
2023/07/16 10:27:46;;;;;;;13.85;4.93;;;;;;;;;;5014231;28;92387;-76
2023/07/16 10:30:12;;;;;;;17.48;5.57;;;;;;;;;;5013565;28;92489;-76
2023/07/16 10:32:39;;;;;;;13.55;4.40;;;;;;;;;;5013575;28;93297;-75
2023/07/16 10:35:08;;;;;;;9.93;4.93;;;;;;;;;;5017044;28;91911;-76
2023/07/16 10:37:35;;;;;;;10.32;4.32;;;;;;;;;;5013699;28;92851;-76
2023/07/16 10:40:05;;;;;;;12.98;4.25;;;;;;;;;;5013783;28;92500;-75
2023/07/16 10:42:32;;;;;;;11.32;4.13;;;;;;;;;;5015652;28;94832;-76
2023/07/16 10:44:59;;;;;;;14.95;4.97;;;;;;;;;;5015497;28;93566;-76
2023/07/16 10:47:35;;;;;;;11.57;4.38;;;;;;;;;;5017538;28;92553;-75
2023/07/16 10:50:06;;;;;;;8.50;4.55;;;;;;;;;;5017064;28;93249;-75
2023/07/16 10:52:32;;;;;;;5.95;4.00;;;;;;;;;;5016886;28;93395;-75
2023/07/16 10:54:59;;;;;;;14.73;5.00;;;;;;;;;;5020795;28;92482;-76
2023/07/16 10:57:26;;;;;;;12.25;4.97;;;;;;;;;;5016927;28;93590;-75
2023/07/16 10:59:53;;;;;;;9.43;4.50;;;;;;;;;;5017818;28;91748;-75
2023/07/16 11:02:21;;;;;;;12.75;4.78;;;;;;;;;;5016964;28;92661;-75
2023/07/16 11:04:48;;;;;;;14.32;4.35;;;;;;;;;;5016792;28;93279;-75
2023/07/16 11:07:15;;;;;;;12.10;5.07;;;;;;;;;;5015273;28;94832;-75
2023/07/16 11:09:45;;;;;;;15.68;5.30;;;;;;;;;;5016890;28;95636;-76
2023/07/16 11:12:13;;;;;;;12.48;5.18;;;;;;;;;;5016583;28;92581;-76
2023/07/16 11:14:44;;;;;;;13.85;4.72;;;;;;;;;;5016698;28;92698;-76
2023/07/16 11:17:11;;;;;;;11.75;4.90;;;;;;;;;;5020197;28;93488;-76
2023/07/16 11:19:37;;;;;;;16.35;5.25;;;;;;;;;;5016747;28;92434;-75
2023/07/16 11:22:05;;;;;;;9.65;3.92;;;;;;;;;;5016977;28;93794;-76
2023/07/16 11:24:44;;;;;;;12.32;4.05;;;;;;;;;;5017095;28;92859;-75
2023/07/16 11:27:15;;;;;;;12.75;4.47;;;;;;;;;;5016574;28;92603;-76
2023/07/16 11:29:51;;;;;;;12.65;4.68;;;;;;;;;;5004172;28;94483;-76
2023/07/16 11:32:26;;;;;;;9.77;4.35;;;;;;;;;;4996905;28;95750;-76
2023/07/16 11:34:54;;;;;;;12.43;4.30;;;;;;;;;;4994856;28;92499;-76
2023/07/16 11:37:21;;;;;;;16.83;4.25;;;;;;;;;;4996750;28;94472;-75
2023/07/16 11:39:48;;;;;;;9.05;4.40;;;;;;;;;;5001881;28;93541;-75
2023/07/16 11:42:18;;;;;;;12.50;3.83;;;;;;;;;;5011767;28;93742;-76
2023/07/16 11:44:45;;;;;;;;;;;;;;;;;;5016559;28;93703;-74
2023/07/16 11:47:11;;;;;;;12.63;4.00;;;;;;;;;;5014896;28;117379;-77
2023/07/16 11:49:38;;;;;;;8.85;2.95;;;;;;;;;;4996493;28;93179;-76
2023/07/16 11:52:04;;;;;;;8.00;3.30;;;;;;;;;;5003109;28;94080;-75
2023/07/16 11:54:31;;;;;;;8.68;2.40;;;;;;;;;;5012597;28;93412;-76
2023/07/16 11:56:57;;;;;;;5.55;2.83;;;;;;;;;;4990512;28;95310;-76
2023/07/16 11:59:23;;;;;;;8.18;2.85;;;;;;;;;;4999761;28;93490;-75
2023/07/16 12:01:50;;;;;;;9.05;2.40;;;;;;;;;;5005919;28;93822;-75
2023/07/16 12:04:17;;;;;;;5.22;2.10;;;;;;;;;;4996174;28;93407;-75
2023/07/16 12:06:43;;;;;;;4.97;2.10;;;;;;;;;;4995729;28;92471;-75
2023/07/16 12:09:10;;;;;;;9.98;2.75;;;;;;;;;;4996171;28;93485;-75
2023/07/16 12:11:37;;;;;;;4.53;2.20;;;;;;;;;;4995726;28;93429;-75
2023/07/16 12:14:05;;;;;;;2.83;1.77;;;;;;;;;;4996752;28;91717;-75
2023/07/16 12:16:31;;;;;;;3.10;1.80;;;;;;;;;;4996816;28;93387;-76
2023/07/16 12:19:02;;;;;;;4.60;1.80;;;;;;;;;;4997116;28;93435;-75
2023/07/16 12:21:28;;;;;;;4.03;1.90;;;;;;;;;;4994030;28;94947;-75
2023/07/16 12:23:55;;;;;;;3.10;1.83;;;;;;;;;;4998574;28;95574;-75
2023/07/16 12:26:21;;;;;;;9.27;2.40;;;;;;;;;;4993495;28;92597;-76
2023/07/16 12:28:48;;;;;;;6.43;2.42;;;;;;;;;;4994269;28;93430;-76
2023/07/16 12:31:15;;;;;;;4.13;2.45;;;;;;;;;;4998887;28;93622;-75
2023/07/16 12:33:42;;;;;;;5.63;2.60;;;;;;;;;;5024636;28;92424;-76
2023/07/16 12:36:08;;;;;;;6.85;2.70;;;;;;;;;;5012033;28;92935;-74
2023/07/16 12:38:35;;;;;;;9.30;3.00;;;;;;;;;;5014773;28;93081;-72
2023/07/16 12:41:01;;;;;;;10.00;3.00;;;;;;;;;;4997761;28;92568;-74
2023/07/16 12:43:27;;;;;;;5.47;2.63;;;;;;;;;;5010513;28;93227;-75
2023/07/16 12:45:54;;;;;;;6.80;2.30;;;;;;;;;;4994691;28;94949;-75
2023/07/16 12:48:20;;;;;;;4.20;2.20;;;;;;;;;;5008361;28;96009;-75
2023/07/16 12:50:47;;;;;;;10.90;2.03;;;;;;;;;;5001176;28;94735;-74
2023/07/16 12:53:14;;;;;;;5.03;1.65;;;;;;;;;;5007779;28;92487;-74
2023/07/16 12:55:40;;;;;;;4.70;2.00;;;;;;;;;;5001042;28;93218;-74
2023/07/16 12:58:07;;;;;;;7.22;1.98;;;;;;;;;;4995416;27;93659;-75
2023/07/16 13:00:33;;;;;;;9.85;2.60;;;;;;;;;;5015189;28;92610;-74
2023/07/16 13:02:59;;;;;;;6.22;1.90;;;;;;;;;;5008647;28;93622;-74
2023/07/16 13:05:26;;;;;;;13.25;2.10;;;;;;;;;;5004841;28;94503;-74
2023/07/16 13:07:53;;;;;;;5.47;2.35;;;;;;;;;;5007421;28;93814;-75
2023/07/16 13:10:19;;;;;;;7.70;2.40;;;;;;;;;;4996965;28;95870;-74
2023/07/16 13:12:49;;;;;;;4.60;1.85;;;;;;;;;;4994983;28;92600;-74
2023/07/16 13:15:15;;;;;;;9.10;1.90;;;;;;;;;;4994609;28;93081;-74
2023/07/16 13:17:42;;;;;;;7.57;1.70;;;;;;;;;;5011464;28;94624;-74
2023/07/16 13:20:09;;;;;;;4.13;1.55;;;;;;;;;;5012710;28;92476;-74
2023/07/16 13:22:35;;;;;;;6.45;1.27;;;;;;;;;;5006434;28;93498;-74
2023/07/16 13:25:02;;;;;;;4.55;1.48;;;;;;;;;;5000158;28;94011;-74
2023/07/16 13:27:28;;;;;;;7.72;1.75;;;;;;;;;;4997694;28;91798;-74
2023/07/16 13:29:55;;;;;;;8.77;1.58;;;;;;;;;;4994137;28;93347;-74
2023/07/16 13:32:21;;;;;;;4.57;1.70;;;;;;;;;;4998952;28;92518;-74
2023/07/16 13:34:48;;;;;;;6.55;1.70;;;;;;;;;;5002110;28;94883;-74
2023/07/16 13:37:14;;;;;;;4.32;1.48;;;;;;;;;;4993362;28;92712;-75
2023/07/16 13:39:41;;;;;;;8.93;1.98;;;;;;;;;;4994635;28;92402;-74
2023/07/16 13:42:07;;;;;;;7.10;1.90;;;;;;;;;;4999351;28;93323;-74
2023/07/16 13:44:47;;;;;;;13.23;2.38;;;;;;;;;;5003555;28;92479;-74
2023/07/16 13:47:13;;;;;;;4.80;1.67;;;;;;;;;;5006652;28;92525;-74
2023/07/16 13:49:39;;;;;;;5.03;1.80;;;;;;;;;;5017326;28;93129;-74
2023/07/16 13:52:06;;;;;;;5.30;1.50;;;;;;;;;;4998019;28;91765;-75
2023/07/16 13:54:33;;;;;;;4.45;1.60;;;;;;;;;;4994035;28;92881;-74
2023/07/16 13:56:59;;;;;;;4.20;1.70;;;;;;;;;;5004134;28;93956;-74
2023/07/16 13:59:25;;;;;;;7.55;1.83;;;;;;;;;;5012550;28;94821;-74
2023/07/16 14:01:59;;;;;;;6.13;1.60;;;;;;;;;;5014178;28;95563;-75
2023/07/16 14:04:25;;;;;;;4.03;1.35;;;;;;;;;;5006276;28;92475;-74
2023/07/16 14:06:53;;;;;;;4.15;1.50;;;;;;;;;;4995500;28;92387;-74
2023/07/16 14:09:21;;;;;;;7.60;1.50;;;;;;;;;;4993794;28;93103;-74
2023/07/16 14:11:47;;;;;;;4.65;1.33;;;;;;;;;;4996820;28;93560;-74
2023/07/16 14:14:15;;;;;;;5.55;1.63;;;;;;;;;;4993382;28;93184;-74
2023/07/16 14:16:41;;;;;;;7.40;1.88;;;;;;;;;;5006240;28;92631;-74
2023/07/16 14:19:07;;;;;;;7.63;1.40;;;;;;;;;;5013456;28;92728;-74
2023/07/16 14:21:34;;;;;;;6.88;1.95;;;;;;;;;;5014245;28;93208;-74
2023/07/16 14:24:00;;;;;;;4.88;1.23;;;;;;;;;;5007936;28;95874;-75
2023/07/16 14:26:26;;;;;;;5.15;1.70;;;;;;;;;;4999474;28;92756;-75
2023/07/16 14:28:53;;;;;;;6.82;1.45;;;;;;;;;;4993840;28;93188;-75
2023/07/16 14:31:19;;;;;;;7.80;1.67;;;;;;;;;;4993904;28;96527;-74